Terminal Aerodrome Forecast
Issued by NWS

Home | Current Version | Previous Version | Text Only | Print | Product List | Glossary Off
Versions: 1 2 3 4 5 6 7 8 9 10 11 12 13 14 15 16 17 18 19 20 21 22 23 24 25 26 27 28 29 30 31 32 33 34 35 36 37 38 39 40 41 42 43 44 45 46 47 48 49 50

704
FTUS43 KGRB 231307 AAA
TAFATW
TAF AMD
KATW 231307Z 2313/2412 07006KT P6SM SCT013 OVC025
      TEMPO 2313/2315 BKN013
     FM231500 09007KT 5SM BR BKN020 OVC050
      TEMPO 2317/2321 2SM -RA BR OVC010
     FM232100 05010KT 5SM -RA BR OVC007
     FM240500 02010G17KT P6SM -SHRA BKN012 OVC040=

USA.gov is the U.S. government's official web portal to all federal, state and local government web resources and services.